createdAt,value
2022-12-27T00:02:22.324Z,5.00
2022-12-27T00:04:50.222Z,5.20
2022-12-27T00:07:17.457Z,5.20
2022-12-27T00:09:44.516Z,5.10
2022-12-27T00:12:11.665Z,5.10
2022-12-27T00:14:38.929Z,5.20
2022-12-27T00:17:05.983Z,5.40
2022-12-27T00:19:33.062Z,5.50
2022-12-27T00:22:00.631Z,5.50
2022-12-27T00:24:27.832Z,5.40
2022-12-27T00:26:54.886Z,5.30
2022-12-27T00:29:22.154Z,5.40
2022-12-27T00:31:49.294Z,5.20
2022-12-27T00:34:16.397Z,5.40
2022-12-27T00:36:43.648Z,5.50
2022-12-27T00:39:12.055Z,5.50
2022-12-27T00:41:39.676Z,5.50
2022-12-27T00:44:06.913Z,5.40
2022-12-27T00:46:33.964Z,5.50
2022-12-27T00:49:01.768Z,5.50
2022-12-27T00:51:29.046Z,5.60
2022-12-27T00:53:56.255Z,5.50
2022-12-27T00:56:29.795Z,5.60
2022-12-27T00:59:03.448Z,5.60
2022-12-27T01:01:34.736Z,5.50
2022-12-27T01:04:02.611Z,5.50
2022-12-27T01:06:32.626Z,5.50
2022-12-27T01:09:01.474Z,5.40
2022-12-27T01:11:30.179Z,5.50
2022-12-27T01:14:04.548Z,5.60
2022-12-27T01:16:34.151Z,5.50
2022-12-27T01:19:01.849Z,5.50
2022-12-27T01:21:30.870Z,5.50
2022-12-27T01:23:58.543Z,5.60
2022-12-27T01:26:26.347Z,5.70
2022-12-27T01:28:54.605Z,5.70
2022-12-27T01:31:26.203Z,5.60
2022-12-27T01:33:59.281Z,5.60
2022-12-27T01:36:28.956Z,5.60
2022-12-27T01:38:58.559Z,5.60
2022-12-27T01:41:50.534Z,5.40
2022-12-27T01:44:51.617Z,5.50
2022-12-27T01:47:46.764Z,5.50
2022-12-27T01:50:32.878Z,5.50
2022-12-27T01:53:18.137Z,5.40
2022-12-27T01:55:56.829Z,5.40
2022-12-27T01:58:52.160Z,5.40
2022-12-27T02:01:32.504Z,5.30
2022-12-27T02:04:06.575Z,5.50
2022-12-27T02:06:36.449Z,5.40
2022-12-27T02:09:14.803Z,5.30
2022-12-27T02:11:52.758Z,5.40
2022-12-27T02:14:28.037Z,5.40
2022-12-27T02:16:58.814Z,5.40
2022-12-27T02:19:41.151Z,5.40
2022-12-27T02:23:04.797Z,5.30
2022-12-27T02:25:57.330Z,5.20
2022-12-27T02:29:11.814Z,5.20
2022-12-27T02:31:45.465Z,5.20
2022-12-27T02:34:23.542Z,5.30
2022-12-27T02:36:56.032Z,5.30
2022-12-27T02:39:25.546Z,5.30
2022-12-27T02:42:13.606Z,5.00
2022-12-27T02:45:15.865Z,5.00
2022-12-27T02:48:04.003Z,5.00
2022-12-27T02:51:41.367Z,4.90
2022-12-27T02:54:14.095Z,4.90
2022-12-27T02:57:42.212Z,4.80
2022-12-27T03:00:36.072Z,4.70
2022-12-27T03:03:59.235Z,4.80
2022-12-27T03:07:14.137Z,4.80
2022-12-27T03:10:20.363Z,4.70
2022-12-27T03:13:14.862Z,4.60
2022-12-27T03:15:58.632Z,4.60
2022-12-27T03:18:37.442Z,4.50
2022-12-27T03:21:25.461Z,4.50
2022-12-27T03:24:15.175Z,4.50
2022-12-27T03:26:49.159Z,4.40
2022-12-27T03:29:38.434Z,4.50
2022-12-27T03:32:29.334Z,4.50
2022-12-27T03:35:16.247Z,4.40
2022-12-27T03:38:05.854Z,4.40
2022-12-27T03:41:11.399Z,4.40
2022-12-27T03:43:39.884Z,4.30
2022-12-27T03:46:34.462Z,4.20
2022-12-27T03:49:34.822Z,4.10
2022-12-27T03:52:04.910Z,4.10
2022-12-27T03:54:37.946Z,4.00
2022-12-27T03:57:12.187Z,4.00
2022-12-27T03:59:39.848Z,4.00
2022-12-27T04:02:08.061Z,4.00
2022-12-27T04:04:35.850Z,4.00
2022-12-27T04:07:04.043Z,4.00
2022-12-27T04:09:50.143Z,4.00
2022-12-27T04:12:36.157Z,4.00
2022-12-27T04:15:23.717Z,3.90
2022-12-27T04:18:09.247Z,3.90
2022-12-27T04:20:54.634Z,3.90
2022-12-27T04:23:40.285Z,3.80
2022-12-27T04:26:25.697Z,3.70
2022-12-27T04:29:11.230Z,3.70
2022-12-27T04:31:57.406Z,3.60
2022-12-27T04:34:43.564Z,3.60
2022-12-27T04:37:16.940Z,3.50
2022-12-27T04:40:04.677Z,3.50
2022-12-27T04:42:50.051Z,3.40
2022-12-27T04:45:35.503Z,3.30
2022-12-27T04:48:21.411Z,3.30
2022-12-27T04:51:06.898Z,3.30
2022-12-27T04:53:52.378Z,3.20
2022-12-27T04:56:19.434Z,3.20
2022-12-27T04:59:04.839Z,3.20
2022-12-27T05:01:51.015Z,3.20
2022-12-27T05:04:18.911Z,3.30
2022-12-27T05:06:46.129Z,3.30
2022-12-27T05:09:31.608Z,3.30
2022-12-27T05:12:17.120Z,3.40
2022-12-27T05:14:44.128Z,3.40
2022-12-27T05:17:11.262Z,3.50
2022-12-27T05:19:38.322Z,3.60
2022-12-27T05:22:24.304Z,3.60
2022-12-27T05:25:09.580Z,3.60
2022-12-27T05:27:37.739Z,3.60
2022-12-27T05:30:05.450Z,3.60
2022-12-27T05:32:33.083Z,3.70
2022-12-27T05:35:00.151Z,3.70
2022-12-27T05:37:27.514Z,3.70
2022-12-27T05:39:54.546Z,3.80
2022-12-27T05:42:21.563Z,3.80
2022-12-27T05:44:48.666Z,3.80
2022-12-27T05:47:15.703Z,3.80
2022-12-27T05:49:42.796Z,3.90
2022-12-27T05:52:09.867Z,3.90
2022-12-27T05:54:36.919Z,3.80
2022-12-27T05:57:04.036Z,3.90
2022-12-27T05:59:31.121Z,3.90
2022-12-27T06:01:58.339Z,3.90
2022-12-27T06:04:25.593Z,4.00
2022-12-27T06:06:52.795Z,4.00
2022-12-27T06:09:19.932Z,3.90
2022-12-27T06:11:47.060Z,4.00
2022-12-27T06:14:14.181Z,4.00
2022-12-27T06:16:41.253Z,3.90
2022-12-27T06:19:09.218Z,3.80
2022-12-27T06:21:36.294Z,3.70
2022-12-27T06:24:03.671Z,3.70
2022-12-27T06:26:30.776Z,3.70
2022-12-27T06:28:58.791Z,3.60
2022-12-27T06:31:27.443Z,3.60
2022-12-27T06:33:55.344Z,3.60
2022-12-27T06:36:30.182Z,3.60
2022-12-27T06:38:59.131Z,3.50
2022-12-27T06:41:26.617Z,3.50
2022-12-27T06:43:56.835Z,3.40
2022-12-27T06:46:24.677Z,3.40
2022-12-27T06:48:52.735Z,3.40
2022-12-27T06:51:21.359Z,3.40
2022-12-27T06:53:48.877Z,3.50
2022-12-27T06:56:19.432Z,3.40
2022-12-27T06:58:48.996Z,3.40
2022-12-27T07:01:23.585Z,3.40
2022-12-27T07:03:56.981Z,3.40
2022-12-27T07:06:25.662Z,3.40
2022-12-27T07:08:53.966Z,3.40
2022-12-27T07:11:22.421Z,3.40
2022-12-27T07:13:53.230Z,3.40
2022-12-27T07:16:26.982Z,3.40
2022-12-27T07:18:56.777Z,3.40
2022-12-27T07:21:27.894Z,3.40
2022-12-27T07:23:55.601Z,3.40
2022-12-27T07:26:30.094Z,3.50
2022-12-27T07:29:01.917Z,3.50
2022-12-27T07:31:32.675Z,3.60
2022-12-27T07:34:03.034Z,3.50
2022-12-27T07:36:40.377Z,3.50
2022-12-27T07:39:08.384Z,3.50
2022-12-27T07:41:36.883Z,3.50
2022-12-27T07:44:04.814Z,3.50
2022-12-27T07:46:33.284Z,3.50
2022-12-27T07:49:00.653Z,3.60
2022-12-27T07:51:29.734Z,3.50
2022-12-27T07:53:56.973Z,3.60
2022-12-27T07:56:27.504Z,3.60
2022-12-27T07:58:58.244Z,3.60
2022-12-27T08:01:27.697Z,3.70
2022-12-27T08:03:56.548Z,3.70
2022-12-27T08:06:34.532Z,3.80
2022-12-27T08:09:05.561Z,3.80
2022-12-27T08:11:33.081Z,3.80
2022-12-27T08:14:00.151Z,3.80
2022-12-27T08:16:27.687Z,3.90
2022-12-27T08:18:55.183Z,3.90
2022-12-27T08:21:23.621Z,4.00
2022-12-27T08:23:50.756Z,4.10
2022-12-27T08:26:17.803Z,4.10
2022-12-27T08:28:44.949Z,4.20
2022-12-27T08:31:13.901Z,4.20
2022-12-27T08:33:42.154Z,4.30
2022-12-27T08:39:00.000Z,4.30
2022-12-27T08:41:27.020Z,4.40
2022-12-27T08:43:54.176Z,4.40
2022-12-27T08:46:21.513Z,4.60
2022-12-27T08:48:49.930Z,4.70
2022-12-27T08:51:28.460Z,4.80
2022-12-27T08:53:58.724Z,4.80
2022-12-27T08:56:25.954Z,4.90
2022-12-27T08:58:53.236Z,4.90
2022-12-27T09:01:20.524Z,4.80
2022-12-27T09:03:47.788Z,4.70
2022-12-27T09:06:21.678Z,4.80
2022-12-27T09:08:50.837Z,4.90
2022-12-27T09:11:30.485Z,4.90
2022-12-27T09:14:04.075Z,4.90
2022-12-27T09:16:34.141Z,4.90
2022-12-27T09:19:02.299Z,4.80
2022-12-27T09:21:32.611Z,4.70
2022-12-27T09:24:00.034Z,4.70
2022-12-27T09:26:30.034Z,4.80
2022-12-27T09:28:58.141Z,4.80
2022-12-27T09:31:26.118Z,4.90
2022-12-27T09:33:54.204Z,4.90
2022-12-27T09:36:25.674Z,4.90
2022-12-27T09:38:54.552Z,5.00
2022-12-27T09:45:21.854Z,5.20
2022-12-27T09:47:58.203Z,5.20
2022-12-27T09:50:38.403Z,5.30
2022-12-27T09:53:22.535Z,5.30
2022-12-27T09:56:00.428Z,5.20
2022-12-27T09:58:42.613Z,5.30
2022-12-27T10:01:24.827Z,5.30
2022-12-27T10:03:53.298Z,5.20
2022-12-27T10:06:32.318Z,5.30
2022-12-27T10:09:51.978Z,5.30
2022-12-27T10:13:15.632Z,5.40
2022-12-27T10:16:05.776Z,5.50
2022-12-27T10:19:12.893Z,5.50
2022-12-27T10:22:10.468Z,5.70
2022-12-27T10:24:46.767Z,5.80
2022-12-27T10:27:24.209Z,6.00
2022-12-27T10:29:57.899Z,5.80
2022-12-27T10:32:26.030Z,5.70
2022-12-27T10:34:58.248Z,5.70
2022-12-27T10:37:25.602Z,5.70
2022-12-27T10:39:52.815Z,5.70
2022-12-27T10:42:41.811Z,5.70
2022-12-27T10:45:29.004Z,5.80
2022-12-27T10:48:28.763Z,5.90
2022-12-27T10:51:06.621Z,6.00
2022-12-27T10:53:58.023Z,6.00
2022-12-27T10:56:42.684Z,6.10
2022-12-27T11:02:02.559Z,6.20
2022-12-27T11:04:31.352Z,6.30
2022-12-27T11:07:04.522Z,6.70
2022-12-27T11:09:38.211Z,6.90
2022-12-27T11:12:13.888Z,7.10
2022-12-27T11:15:19.758Z,7.30
2022-12-27T11:17:50.927Z,7.50
2022-12-27T11:20:23.807Z,7.90
2022-12-27T11:23:10.712Z,8.10
2022-12-27T11:25:55.566Z,8.00
2022-12-27T11:28:38.308Z,7.60
2022-12-27T11:31:15.767Z,7.40
2022-12-27T11:33:51.135Z,8.50
2022-12-27T11:36:48.080Z,8.80
2022-12-27T11:39:46.552Z,9.70
2022-12-27T11:42:38.524Z,9.70
2022-12-27T11:45:19.485Z,10.10
2022-12-27T11:47:58.442Z,9.70
2022-12-27T11:50:28.264Z,9.10
2022-12-27T11:53:56.245Z,9.10
2022-12-27T11:56:36.078Z,8.60
2022-12-27T11:59:20.818Z,8.00
2022-12-27T12:02:19.028Z,7.70
2022-12-27T12:05:23.703Z,7.70
2022-12-27T12:07:53.839Z,7.50
2022-12-27T12:10:46.187Z,7.20
2022-12-27T12:13:53.514Z,7.20
2022-12-27T12:16:55.552Z,7.30
2022-12-27T12:20:27.352Z,7.10
2022-12-27T12:24:02.882Z,7.20
2022-12-27T12:27:13.637Z,7.10
2022-12-27T12:30:13.577Z,7.10
2022-12-27T12:33:04.779Z,7.20
2022-12-27T12:35:53.649Z,7.00
2022-12-27T12:38:23.913Z,7.10
2022-12-27T12:41:16.938Z,7.10
2022-12-27T12:43:49.968Z,7.10
2022-12-27T12:46:37.730Z,7.10
2022-12-27T12:49:51.572Z,7.30
2022-12-27T12:52:42.229Z,7.30
2022-12-27T12:56:14.448Z,7.20
2022-12-27T12:59:16.674Z,7.30
2022-12-27T13:02:09.878Z,7.20
2022-12-27T13:05:11.912Z,7.30
2022-12-27T13:07:48.261Z,7.10
2022-12-27T13:11:01.732Z,7.00
2022-12-27T13:14:02.487Z,7.10
2022-12-27T13:17:06.636Z,7.00
2022-12-27T13:19:55.542Z,7.10
2022-12-27T13:23:38.234Z,7.10
2022-12-27T13:26:30.117Z,7.10
2022-12-27T13:29:17.288Z,7.10
2022-12-27T13:32:05.754Z,7.10
2022-12-27T13:35:19.735Z,7.10
2022-12-27T13:38:31.900Z,7.10
2022-12-27T13:41:17.047Z,7.00
2022-12-27T13:44:31.940Z,7.20
2022-12-27T13:47:26.031Z,7.20
2022-12-27T13:50:42.744Z,6.90
2022-12-27T13:53:27.728Z,7.00
2022-12-27T13:56:52.755Z,6.90
2022-12-27T13:59:44.565Z,6.90
2022-12-27T14:02:51.507Z,6.90
2022-12-27T14:06:06.243Z,6.90
2022-12-27T14:08:55.089Z,6.70
2022-12-27T14:11:51.301Z,6.70
2022-12-27T14:14:21.091Z,6.70
2022-12-27T14:17:08.693Z,6.70
2022-12-27T14:20:01.739Z,6.70
2022-12-27T14:23:24.882Z,6.80
2022-12-27T14:26:26.503Z,6.70
2022-12-27T14:29:11.907Z,6.70
2022-12-27T14:32:08.385Z,6.70
2022-12-27T14:34:59.073Z,6.70
2022-12-27T14:38:17.090Z,6.70
2022-12-27T14:41:18.082Z,6.50
2022-12-27T14:44:16.708Z,6.60
2022-12-27T14:47:11.836Z,6.50
2022-12-27T14:50:03.096Z,6.60
2022-12-27T14:52:50.258Z,6.50
2022-12-27T14:55:40.958Z,6.50
2022-12-27T14:58:30.116Z,6.60
2022-12-27T15:01:03.913Z,6.60
2022-12-27T15:04:01.215Z,6.50
2022-12-27T15:06:53.912Z,6.50
2022-12-27T15:10:08.668Z,6.30
2022-12-27T15:12:51.677Z,6.20
2022-12-27T15:15:26.013Z,6.00
2022-12-27T15:18:28.215Z,6.00
2022-12-27T15:21:41.296Z,5.90
2022-12-27T15:24:23.848Z,5.80
2022-12-27T15:27:25.935Z,5.70
2022-12-27T15:30:21.688Z,5.60
2022-12-27T15:33:22.746Z,5.50
2022-12-27T15:36:16.844Z,5.40
2022-12-27T15:38:54.311Z,5.30
2022-12-27T15:41:34.836Z,5.30
2022-12-27T15:44:36.028Z,5.20
2022-12-27T15:47:15.908Z,5.20
2022-12-27T15:50:23.426Z,5.10
2022-12-27T15:53:21.009Z,5.10
2022-12-27T15:56:18.333Z,5.00
2022-12-27T15:59:24.712Z,5.00
2022-12-27T16:02:22.577Z,5.00
2022-12-27T16:04:57.001Z,4.90
2022-12-27T16:07:45.975Z,4.90
2022-12-27T16:10:31.771Z,4.80
2022-12-27T16:13:04.892Z,4.80
2022-12-27T16:15:47.968Z,4.80
2022-12-27T16:18:24.518Z,4.80
2022-12-27T16:21:20.147Z,4.70
2022-12-27T16:23:47.177Z,4.70
2022-12-27T16:26:21.084Z,4.70
2022-12-27T16:29:01.201Z,4.60
2022-12-27T16:31:32.013Z,4.60
2022-12-27T16:34:11.967Z,4.60
2022-12-27T16:36:46.736Z,4.60
2022-12-27T16:40:30.954Z,4.50
2022-12-27T16:42:58.070Z,4.60
2022-12-27T16:45:40.179Z,4.50
2022-12-27T16:48:34.667Z,4.40
2022-12-27T16:51:52.259Z,4.40
2022-12-27T16:55:00.182Z,4.40
2022-12-27T16:57:27.220Z,4.30
2022-12-27T17:00:22.821Z,4.30
2022-12-27T17:02:50.716Z,4.20
2022-12-27T17:05:36.197Z,4.10
2022-12-27T17:08:24.305Z,4.20
2022-12-27T17:10:51.424Z,4.10
2022-12-27T17:13:27.467Z,4.00
2022-12-27T17:16:22.354Z,4.00
2022-12-27T17:19:02.114Z,4.00
2022-12-27T17:21:38.884Z,4.00
2022-12-27T17:24:14.302Z,3.90
2022-12-27T17:27:13.563Z,4.00
2022-12-27T17:30:02.284Z,4.00
2022-12-27T17:33:33.134Z,4.00
2022-12-27T17:36:47.104Z,4.00
2022-12-27T17:40:01.414Z,4.00
2022-12-27T17:43:00.762Z,4.20
2022-12-27T17:45:49.786Z,4.10
2022-12-27T17:48:31.927Z,4.20
2022-12-27T17:51:05.587Z,4.20
2022-12-27T17:53:51.477Z,4.20
2022-12-27T17:56:42.013Z,4.20
2022-12-27T17:59:13.467Z,4.20
2022-12-27T18:01:48.952Z,4.30
2022-12-27T18:04:19.700Z,4.30
2022-12-27T18:06:47.247Z,4.30
2022-12-27T18:09:54.573Z,4.30
2022-12-27T18:12:31.760Z,4.30
2022-12-27T18:15:29.550Z,4.40
2022-12-27T18:18:01.360Z,4.30
2022-12-27T18:20:28.634Z,4.30
2022-12-27T18:23:01.698Z,4.30
2022-12-27T18:25:41.024Z,4.30
2022-12-27T18:28:33.501Z,4.30
2022-12-27T18:31:46.933Z,4.40
2022-12-27T18:34:24.913Z,4.40
2022-12-27T18:37:07.326Z,4.40
2022-12-27T18:39:39.391Z,4.40
2022-12-27T18:42:19.654Z,4.40
2022-12-27T18:44:53.059Z,4.30
2022-12-27T18:47:29.518Z,4.40
2022-12-27T18:50:02.909Z,4.40
2022-12-27T18:52:38.567Z,4.40
2022-12-27T18:55:26.753Z,4.40
2022-12-27T18:58:20.813Z,4.40
2022-12-27T19:01:24.437Z,4.50
2022-12-27T19:04:17.326Z,4.50
2022-12-27T19:07:07.358Z,4.60
2022-12-27T19:09:55.903Z,4.50
2022-12-27T19:12:34.211Z,4.60
2022-12-27T19:15:03.134Z,4.60
2022-12-27T19:17:32.333Z,4.60
2022-12-27T19:20:06.739Z,4.60
2022-12-27T19:23:06.399Z,4.60
2022-12-27T19:25:36.475Z,4.60
2022-12-27T19:28:09.794Z,4.60
2022-12-27T19:30:52.695Z,4.60
2022-12-27T19:33:32.849Z,4.60
2022-12-27T19:36:01.106Z,4.60
2022-12-27T19:38:30.670Z,4.70
2022-12-27T19:41:03.752Z,4.70
2022-12-27T19:43:42.044Z,4.60
2022-12-27T19:46:14.507Z,4.70
2022-12-27T19:48:41.949Z,4.60
2022-12-27T19:51:20.274Z,4.60
2022-12-27T19:53:57.533Z,4.60
2022-12-27T19:56:25.267Z,4.60
2022-12-27T19:58:52.555Z,4.40
2022-12-27T20:01:19.871Z,4.40
2022-12-27T20:03:47.568Z,4.30
2022-12-27T20:06:22.941Z,4.30
2022-12-27T20:08:53.733Z,4.30
2022-12-27T20:11:23.260Z,4.30
2022-12-27T20:13:50.737Z,4.30
2022-12-27T20:16:20.163Z,4.30
2022-12-27T20:18:47.596Z,4.30
2022-12-27T20:21:21.994Z,4.30
2022-12-27T20:23:49.966Z,4.30
2022-12-27T20:26:21.040Z,4.30
2022-12-27T20:28:49.238Z,4.30
2022-12-27T20:31:19.419Z,4.30
2022-12-27T20:33:54.135Z,4.30
2022-12-27T20:36:22.869Z,4.30
2022-12-27T20:38:50.573Z,4.30
2022-12-27T20:41:21.265Z,4.20
2022-12-27T20:43:49.063Z,4.20
2022-12-27T20:46:18.990Z,4.20
2022-12-27T20:48:47.322Z,4.20
2022-12-27T20:51:21.330Z,4.20
2022-12-27T20:53:54.788Z,4.20
2022-12-27T20:56:22.394Z,4.20
2022-12-27T20:58:49.611Z,4.10
2022-12-27T21:01:21.272Z,4.10
2022-12-27T21:03:48.695Z,4.10
2022-12-27T21:06:25.930Z,4.10
2022-12-27T21:08:57.329Z,4.10
2022-12-27T21:11:31.800Z,4.20
2022-12-27T21:14:01.706Z,4.20
2022-12-27T21:16:31.547Z,4.20
2022-12-27T21:19:03.507Z,4.20
2022-12-27T21:21:33.754Z,4.20
2022-12-27T21:24:01.306Z,4.20
2022-12-27T21:26:32.268Z,4.20
2022-12-27T21:29:00.626Z,4.20
2022-12-27T21:31:28.921Z,4.20
2022-12-27T21:33:56.549Z,4.20
2022-12-27T21:36:26.000Z,4.20
2022-12-27T21:38:54.555Z,4.30
2022-12-27T21:41:25.884Z,4.30
2022-12-27T21:43:53.850Z,4.30
2022-12-27T21:46:26.424Z,4.30
2022-12-27T21:48:59.841Z,4.30
2022-12-27T21:51:28.761Z,4.40
2022-12-27T21:53:56.326Z,4.40
2022-12-27T21:56:24.840Z,4.30
2022-12-27T21:58:52.882Z,4.30
2022-12-27T22:01:28.872Z,4.40
2022-12-27T22:03:58.235Z,4.40
2022-12-27T22:06:46.394Z,4.40
2022-12-27T22:09:14.185Z,4.50
2022-12-27T22:11:41.324Z,4.50
2022-12-27T22:14:08.582Z,4.50
2022-12-27T22:16:38.970Z,4.50
2022-12-27T22:19:12.109Z,4.50
2022-12-27T22:21:40.741Z,4.50
2022-12-27T22:24:13.169Z,4.50
2022-12-27T22:26:41.845Z,4.50
2022-12-27T22:29:08.942Z,4.50
2022-12-27T22:31:37.943Z,4.50
2022-12-27T22:34:06.595Z,4.50
2022-12-27T22:36:34.925Z,4.50
2022-12-27T22:39:02.752Z,4.50
2022-12-27T22:41:33.436Z,4.50
2022-12-27T22:44:11.253Z,4.50
2022-12-27T22:47:06.831Z,4.50
2022-12-27T22:49:26.518Z,4.50
2022-12-27T22:51:53.690Z,4.50
2022-12-27T22:54:20.878Z,4.50
2022-12-27T22:57:07.950Z,4.60
2022-12-27T22:59:35.117Z,4.60
2022-12-27T23:02:02.390Z,4.60
2022-12-27T23:04:29.762Z,4.50
2022-12-27T23:06:56.917Z,4.60
2022-12-27T23:09:24.023Z,4.60
2022-12-27T23:11:51.111Z,4.60
2022-12-27T23:14:18.231Z,4.50
2022-12-27T23:16:48.246Z,4.50
2022-12-27T23:19:21.551Z,4.50
2022-12-27T23:21:49.388Z,4.50
2022-12-27T23:24:16.685Z,4.60
2022-12-27T23:26:43.975Z,4.60
2022-12-27T23:29:14.963Z,4.50
2022-12-27T23:31:54.350Z,4.60
2022-12-27T23:34:27.716Z,4.60
2022-12-27T23:36:56.474Z,4.60
2022-12-27T23:39:23.616Z,4.50
2022-12-27T23:41:50.755Z,4.40
2022-12-27T23:44:33.485Z,4.30
2022-12-27T23:47:04.108Z,4.30
2022-12-27T23:49:31.479Z,4.30
2022-12-27T23:51:58.670Z,4.20
2022-12-27T23:54:25.745Z,4.20
2022-12-27T23:56:52.889Z,4.30
2022-12-27T23:59:20.071Z,4.30
